Time;durP1;ratioP1;P1;durP2;ratioP2;P2;SDS_P1;SDS_P2;PMS_P1;PMS_P2;Temp;Humidity;BMP_temperature;BMP_pressure;BME280_temperature;BME280_humidity;BME280_pressure;Samples;Min_cycle;Max_cycle;Signal;HPM_P1;HPM_P2
2023/10/17 00:01:00;;;;;;;9.53;7.00;;;8.10;99.90;;;;;;4974309;28;20440;-63
2023/10/17 00:03:26;;;;;;;9.50;6.90;;;8.00;99.90;;;;;;4970131;28;20462;-63
2023/10/17 00:05:55;;;;;;;11.33;7.90;;;8.00;99.90;;;;;;4973979;28;20462;-63
2023/10/17 00:08:21;;;;;;;8.97;6.57;;;7.90;99.90;;;;;;4972340;28;20972;-63
2023/10/17 00:10:47;;;;;;;8.27;6.60;;;7.90;99.90;;;;;;4976780;28;20439;-63
2023/10/17 00:13:38;;;;;;;9.23;7.57;;;8.00;99.90;;;;;;4980079;28;20868;-63
2023/10/17 00:16:07;;;;;;;7.17;6.47;;;7.90;99.90;;;;;;4974065;28;20442;-63
2023/10/17 00:18:33;;;;;;;8.60;7.40;;;7.90;99.90;;;;;;4973649;28;20466;-63
2023/10/17 00:21:10;;;;;;;7.77;6.93;;;7.90;99.90;;;;;;4978614;28;20434;-63
2023/10/17 00:23:39;;;;;;;9.63;7.77;;;7.90;99.90;;;;;;4973014;28;20621;-63
2023/10/17 00:26:08;;;;;;;8.50;7.60;;;7.90;99.90;;;;;;4973888;28;20435;-63
2023/10/17 00:28:35;;;;;;;10.07;7.33;;;7.90;99.90;;;;;;4976599;28;20441;-63
2023/10/17 00:31:04;;;;;;;8.17;7.33;;;7.90;99.90;;;;;;4971996;28;20430;-63
2023/10/17 00:33:32;;;;;;;8.83;7.93;;;7.80;99.90;;;;;;4973463;28;20435;-64
2023/10/17 00:35:58;;;;;;;8.90;6.60;;;7.90;99.90;;;;;;4973576;28;20463;-62
2023/10/17 00:38:29;;;;;;;8.07;7.27;;;7.80;99.90;;;;;;4974351;28;20489;-64
2023/10/17 00:40:56;;;;;;;9.07;7.10;;;7.80;99.90;;;;;;4974224;28;20443;-64
2023/10/17 00:43:28;;;;;;;8.40;7.30;;;7.70;99.90;;;;;;4973872;28;20459;-64
2023/10/17 00:45:53;;;;;;;8.33;6.87;;;7.80;99.90;;;;;;4973023;28;20905;-64
2023/10/17 00:48:23;;;;;;;9.20;7.00;;;7.90;99.90;;;;;;4970254;28;20435;-64
2023/10/17 00:50:51;;;;;;;10.40;8.13;;;7.80;99.90;;;;;;4973368;28;20302;-64
2023/10/17 00:53:19;;;;;;;11.40;6.50;;;7.80;99.90;;;;;;4974409;28;20789;-64
2023/10/17 00:55:52;;;;;;;9.37;7.20;;;7.90;99.90;;;;;;4979048;28;20574;-64
2023/10/17 00:58:18;;;;;;;6.30;5.70;;;7.80;99.90;;;;;;4974168;28;20478;-64
2023/10/17 01:00:58;;;;;;;9.20;7.90;;;7.80;99.90;;;;;;4971266;28;20454;-64
2023/10/17 01:03:25;;;;;;;8.70;7.03;;;7.70;99.90;;;;;;4972860;28;20333;-64
2023/10/17 01:05:57;;;;;;;11.80;7.20;;;7.70;99.90;;;;;;4974564;28;20782;-65
2023/10/17 01:08:44;;;;;;;7.53;6.73;;;7.70;99.90;;;;;;4973777;28;20554;-64
2023/10/17 01:11:27;;;;;;;7.53;6.83;;;7.70;99.90;;;;;;4972116;28;21323;-64
2023/10/17 01:13:54;;;;;;;8.53;6.83;;;7.60;99.90;;;;;;4972843;28;20933;-64
2023/10/17 01:16:26;;;;;;;8.13;6.97;;;7.50;99.90;;;;;;4972904;28;20790;-64
2023/10/17 01:18:53;;;;;;;10.03;7.03;;;7.70;99.90;;;;;;4969036;28;20467;-64
2023/10/17 01:21:21;;;;;;;7.90;7.10;;;7.70;99.90;;;;;;4973522;28;20542;-64
2023/10/17 01:23:50;;;;;;;7.30;6.60;;;7.60;99.90;;;;;;4971918;28;20787;-64
2023/10/17 01:26:20;;;;;;;8.80;7.10;;;7.50;99.90;;;;;;4973336;28;20439;-65
2023/10/17 01:28:53;;;;;;;9.77;7.67;;;7.50;99.90;;;;;;4978001;28;20438;-64
2023/10/17 01:31:22;;;;;;;7.00;6.30;;;7.50;99.90;;;;;;4973453;28;20467;-64
2023/10/17 01:33:51;;;;;;;8.40;6.40;;;7.50;99.90;;;;;;4977864;28;20432;-64
2023/10/17 01:36:17;;;;;;;8.37;7.13;;;7.60;99.90;;;;;;4969067;28;20426;-64
2023/10/17 01:38:43;;;;;;;8.57;7.57;;;7.60;99.90;;;;;;4971820;28;20551;-65
2023/10/17 01:41:13;;;;;;;9.90;6.90;;;7.60;99.90;;;;;;4977577;28;20435;-64
2023/10/17 01:43:48;;;;;;;10.33;7.40;;;7.70;99.90;;;;;;4974738;28;20497;-64
2023/10/17 01:46:28;;;;;;;8.17;6.30;;;7.70;99.90;;;;;;4970225;28;20422;-64
2023/10/17 01:48:54;;;;;;;7.73;6.73;;;7.70;99.90;;;;;;4980625;28;20500;-65
2023/10/17 01:51:22;;;;;;;9.67;7.50;;;7.80;99.90;;;;;;4977132;28;21433;-64
2023/10/17 01:53:51;;;;;;;10.07;6.83;;;7.70;99.90;;;;;;4971229;28;20464;-64
2023/10/17 01:56:29;;;;;;;8.03;6.97;;;7.70;99.90;;;;;;4970194;28;21240;-64
2023/10/17 01:58:55;;;;;;;12.87;8.57;;;7.60;99.90;;;;;;4972574;28;20475;-64
2023/10/17 02:01:26;;;;;;;11.33;8.13;;;7.70;99.90;;;;;;4987528;28;20459;-64
2023/10/17 02:04:05;;;;;;;10.40;7.47;;;7.60;99.90;;;;;;4971736;28;20439;-64
2023/10/17 02:06:33;;;;;;;12.00;8.00;;;7.60;99.90;;;;;;4970396;28;20445;-64
2023/10/17 02:08:59;;;;;;;10.67;8.73;;;7.50;99.90;;;;;;4971029;28;20447;-64
2023/10/17 02:11:32;;;;;;;8.53;7.53;;;7.60;99.90;;;;;;4970595;28;20497;-64
2023/10/17 02:13:59;;;;;;;13.30;8.97;;;7.60;99.90;;;;;;4972368;28;20876;-64
2023/10/17 02:16:29;;;;;;;12.00;8.73;;;7.50;99.90;;;;;;4972010;28;20501;-64
2023/10/17 02:18:55;;;;;;;13.00;8.20;;;7.50;99.90;;;;;;4968378;28;20507;-64
2023/10/17 02:21:21;;;;;;;12.90;8.73;;;7.40;99.90;;;;;;4972777;28;20463;-64
2023/10/17 02:23:50;;;;;;;13.33;8.10;;;7.40;99.90;;;;;;4970558;28;20535;-64
2023/10/17 02:26:23;;;;;;;11.70;8.13;;;7.40;99.90;;;;;;4973369;28;20187;-64
2023/10/17 02:28:49;;;;;;;9.17;7.63;;;7.40;99.90;;;;;;4976762;28;20429;-64
2023/10/17 02:31:16;;;;;;;11.40;8.03;;;7.40;99.90;;;;;;4974124;28;20438;-64
2023/10/17 02:33:42;;;;;;;12.23;8.43;;;7.40;99.90;;;;;;4984192;28;20526;-64
2023/10/17 02:36:16;;;;;;;11.40;8.00;;;7.40;99.90;;;;;;4969501;28;20501;-64
2023/10/17 02:38:43;;;;;;;13.33;9.00;;;7.30;99.90;;;;;;4983094;28;21083;-64
2023/10/17 02:41:14;;;;;;;10.40;8.67;;;7.40;99.90;;;;;;4973689;28;20435;-64
2023/10/17 02:43:45;;;;;;;11.40;9.07;;;7.40;99.90;;;;;;4969228;28;20432;-64
2023/10/17 02:46:14;;;;;;;9.70;7.67;;;7.30;99.90;;;;;;4981330;28;20844;-64
2023/10/17 02:48:41;;;;;;;9.53;7.50;;;7.40;99.90;;;;;;4969393;28;20428;-64
2023/10/17 02:53:53;;;;;;;11.20;7.83;;;7.30;99.90;;;;;;4970016;28;20456;-64
2023/10/17 02:56:28;;;;;;;9.37;8.30;;;7.20;99.90;;;;;;4968417;28;20954;-65
2023/10/17 02:59:12;;;;;;;9.20;8.10;;;7.20;99.90;;;;;;4971296;28;20888;-64
2023/10/17 03:01:39;;;;;;;9.33;7.27;;;7.10;99.90;;;;;;4969646;28;21217;-64
2023/10/17 03:04:11;;;;;;;10.17;7.83;;;7.10;99.90;;;;;;4972384;28;20452;-64
2023/10/17 03:06:54;;;;;;;10.90;7.87;;;7.10;99.90;;;;;;4969000;28;20466;-64
2023/10/17 03:11:57;;;;;;;11.53;8.30;;;7.00;99.90;;;;;;4970136;28;20428;-64
2023/10/17 03:14:39;;;;;;;12.63;8.30;;;7.00;99.90;;;;;;4972134;28;20427;-64
2023/10/17 03:17:09;;;;;;;11.57;7.60;;;7.00;99.90;;;;;;4972300;28;20510;-65
2023/10/17 03:19:35;;;;;;;10.70;8.53;;;7.00;99.90;;;;;;4970169;28;20439;-64
2023/10/17 03:22:16;;;;;;;9.03;8.10;;;7.00;99.90;;;;;;4975885;28;20432;-65
2023/10/17 03:24:46;;;;;;;11.47;8.00;;;7.00;99.90;;;;;;4969040;28;20587;-64
2023/10/17 03:27:23;;;;;;;9.30;7.73;;;7.00;99.90;;;;;;4968021;28;20442;-64
2023/10/17 03:29:50;;;;;;;10.50;8.33;;;7.00;99.90;;;;;;4978124;28;20906;-64
2023/10/17 03:32:16;;;;;;;14.73;8.40;;;7.00;99.90;;;;;;4975664;28;20446;-64
2023/10/17 03:34:45;;;;;;;9.27;7.63;;;6.90;99.90;;;;;;4968436;28;20439;-64
2023/10/17 03:40:15;;;;;;;9.00;7.77;;;6.80;99.90;;;;;;4969267;28;20451;-64
2023/10/17 03:42:45;;;;;;;12.13;8.50;;;6.80;99.90;;;;;;4968089;28;20586;-63
2023/10/17 03:45:13;;;;;;;9.70;8.00;;;6.80;99.90;;;;;;4973623;28;20521;-64
2023/10/17 03:47:53;;;;;;;9.40;7.50;;;6.80;99.90;;;;;;4976948;28;20542;-64
2023/10/17 03:50:31;;;;;;;9.00;8.07;;;6.80;99.90;;;;;;4975855;28;20438;-65
2023/10/17 03:53:15;;;;;;;11.63;7.43;;;6.90;99.90;;;;;;4973800;28;20779;-65
2023/10/17 03:55:43;;;;;;;10.10;7.90;;;6.90;99.90;;;;;;4976486;28;20424;-64
2023/10/17 04:00:55;;;;;;;9.67;8.17;;;6.90;99.90;;;;;;4975768;28;20420;-64
2023/10/17 04:03:22;;;;;;;9.27;7.60;;;6.90;99.90;;;;;;4980029;28;20585;-64
2023/10/17 04:05:50;;;;;;;9.00;7.77;;;6.90;99.90;;;;;;4971684;28;20427;-64
2023/10/17 04:08:19;;;;;;;8.70;7.70;;;7.00;99.90;;;;;;4976373;28;20466;-63
2023/10/17 04:11:08;;;;;;;7.70;6.77;;;7.10;99.90;;;;;;4973048;28;20424;-64
2023/10/17 04:13:34;;;;;;;9.27;7.53;;;7.10;99.90;;;;;;4972190;28;20431;-65
2023/10/17 04:16:08;;;;;;;10.13;7.10;;;7.00;99.90;;;;;;4973417;28;20428;-64
2023/10/17 04:18:37;;;;;;;8.60;7.40;;;7.00;99.90;;;;;;4978084;28;20939;-64
2023/10/17 04:21:17;;;;;;;8.97;7.40;;;7.00;99.90;;;;;;4974411;28;20850;-64
2023/10/17 04:23:44;;;;;;;11.47;8.40;;;6.90;99.90;;;;;;4982267;28;20968;-64
2023/10/17 04:26:17;;;;;;;9.00;7.20;;;6.90;99.90;;;;;;4974843;28;20491;-64
2023/10/17 04:28:49;;;;;;;8.00;7.20;;;6.80;99.90;;;;;;4977815;28;20428;-64
2023/10/17 04:31:30;;;;;;;8.20;7.37;;;6.90;99.90;;;;;;4972359;28;20450;-64
2023/10/17 04:34:05;;;;;;;9.13;8.23;;;6.90;99.90;;;;;;4972689;28;20435;-65
2023/10/17 04:36:35;;;;;;;9.83;8.70;;;6.90;99.90;;;;;;4973091;28;21368;-64
2023/10/17 04:39:25;;;;;;;8.57;7.67;;;6.90;99.90;;;;;;4978352;28;20464;-64
2023/10/17 04:44:25;;;;;;;10.73;8.07;;;6.90;99.90;;;;;;4977876;28;20554;-63
2023/10/17 04:49:35;;;;;;;8.77;7.87;;;7.00;99.90;;;;;;4967625;28;20447;-64
2023/10/17 04:52:08;;;;;;;10.00;7.73;;;7.10;99.90;;;;;;4971078;28;20503;-63
2023/10/17 04:57:04;;;;;;;7.70;7.00;;;7.00;99.90;;;;;;4962699;28;20424;-64
2023/10/17 06:18:58;;;;;;;8.03;6.60;;;7.30;99.90;;;;;;4967614;28;20480;-64
2023/10/17 06:21:36;;;;;;;9.70;7.03;;;7.30;99.90;;;;;;4970756;28;20452;-64
2023/10/17 06:26:47;;;;;;;11.20;7.03;;;7.50;99.90;;;;;;4966143;28;20440;-64
2023/10/17 06:34:18;;;;;;;7.03;6.33;;;7.50;99.90;;;;;;4968929;28;20520;-64
2023/10/17 06:36:45;;;;;;;7.33;6.63;;;7.50;99.90;;;;;;4969687;28;20432;-64
2023/10/17 06:39:17;;;;;;;8.63;6.70;;;7.60;99.90;;;;;;4972141;28;20525;-64
2023/10/17 06:41:47;;;;;;;7.27;6.17;;;7.60;99.90;;;;;;4966177;28;20443;-64
2023/10/17 06:44:23;;;;;;;7.93;7.13;;;7.70;99.90;;;;;;4972880;28;20456;-63
2023/10/17 06:46:55;;;;;;;7.20;6.43;;;7.70;99.90;;;;;;4975748;28;21101;-64
2023/10/17 06:54:43;;;;;;;10.03;7.30;;;7.70;99.90;;;;;;4969325;28;20696;-64
2023/10/17 06:57:33;;;;;;;8.77;7.10;;;7.70;99.90;;;;;;4972312;28;20912;-64
2023/10/17 07:00:01;;;;;;;7.70;7.00;;;7.70;99.90;;;;;;4971531;28;20491;-64
2023/10/17 07:02:34;;;;;;;9.90;6.97;;;7.70;99.90;;;;;;4970381;28;20489;-63
2023/10/17 07:05:01;;;;;;;7.60;6.80;;;7.80;99.90;;;;;;4974458;28;20470;-64
2023/10/17 07:07:45;;;;;;;9.80;6.83;;;7.80;99.90;;;;;;4973496;28;20450;-63
2023/10/17 07:10:24;;;;;;;8.07;7.23;;;7.80;99.90;;;;;;4969454;28;20438;-64
2023/10/17 07:13:27;;;;;;;8.67;7.10;;;7.80;99.90;;;;;;4968992;28;20929;-64
2023/10/17 07:15:54;;;;;;;8.00;7.13;;;7.90;99.90;;;;;;4971563;28;20428;-64
2023/10/17 07:21:25;;;;;;;9.27;6.87;;;8.00;99.90;;;;;;4970889;28;20432;-63
2023/10/17 07:23:54;;;;;;;10.00;7.10;;;7.90;99.90;;;;;;4969101;28;20462;-64
2023/10/17 07:28:56;;;;;;;9.33;7.67;;;7.90;99.90;;;;;;4968628;28;20449;-64
2023/10/17 07:31:22;;;;;;;10.10;7.43;;;7.90;99.90;;;;;;4968419;28;20594;-64
2023/10/17 07:34:16;;;;;;;9.73;8.53;;;7.90;99.90;;;;;;4980468;28;20437;-64
2023/10/17 07:36:43;;;;;;;12.27;8.87;;;7.90;99.90;;;;;;4983545;28;21153;-64
2023/10/17 07:39:23;;;;;;;9.23;8.30;;;7.90;99.90;;;;;;4974388;28;20479;-64
2023/10/17 07:41:53;;;;;;;9.70;7.90;;;8.00;99.90;;;;;;4972312;28;20526;-64
2023/10/17 07:44:25;;;;;;;8.87;7.50;;;8.00;99.90;;;;;;4967643;28;20446;-63
2023/10/17 07:49:37;;;;;;;9.17;7.57;;;8.30;99.90;;;;;;4975190;28;20447;-64
2023/10/17 07:52:10;;;;;;;8.57;7.57;;;8.40;99.90;;;;;;4974544;28;21160;-64
2023/10/17 07:54:45;;;;;;;9.47;7.77;;;8.60;99.90;;;;;;4969524;28;20448;-64
2023/10/17 07:57:23;;;;;;;8.70;7.80;;;8.90;99.90;;;;;;4979771;28;20450;-64
2023/10/17 07:59:52;;;;;;;10.23;7.57;;;9.10;99.90;;;;;;4977595;28;20443;-64
2023/10/17 08:02:22;;;;;;;10.27;8.00;;;9.30;99.90;;;;;;4970970;28;21280;-64
2023/10/17 08:04:53;;;;;;;10.07;7.73;;;9.40;99.90;;;;;;4976878;28;20453;-64
2023/10/17 08:07:20;;;;;;;8.27;7.30;;;9.40;99.90;;;;;;4976942;28;20439;-64
2023/10/17 08:09:59;;;;;;;7.43;6.83;;;9.40;99.90;;;;;;4975390;28;20534;-64
2023/10/17 08:12:29;;;;;;;8.90;7.20;;;9.40;99.90;;;;;;4970604;28;20453;-64
2023/10/17 08:14:58;;;;;;;8.80;7.30;;;9.40;99.90;;;;;;4982469;28;20446;-63
2023/10/17 08:17:34;;;;;;;8.90;8.00;;;9.30;99.90;;;;;;4979067;28;20463;-64
2023/10/17 08:20:00;;;;;;;8.43;7.60;;;9.40;99.90;;;;;;4978833;28;20435;-64
2023/10/17 08:22:27;;;;;;;8.30;7.20;;;9.30;99.90;;;;;;4976267;28;20462;-64
2023/10/17 08:24:53;;;;;;;10.07;7.97;;;9.20;99.90;;;;;;4967921;28;20774;-64
2023/10/17 08:30:01;;;;;;;8.37;7.57;;;9.30;99.90;;;;;;4974732;28;20432;-64
2023/10/17 08:34:59;;;;;;;9.07;8.10;;;9.90;99.90;;;;;;4971188;28;20431;-64
2023/10/17 08:37:30;;;;;;;10.53;8.23;;;10.10;99.90;;;;;;4973717;28;21243;-64
2023/10/17 08:39:57;;;;;;;8.13;7.37;;;10.20;99.90;;;;;;4972557;28;20526;-64
2023/10/17 08:44:55;;;;;;;7.73;7.00;;;10.60;99.90;;;;;;4973696;28;20520;-64
2023/10/17 08:47:25;;;;;;;9.60;8.10;;;10.90;99.90;;;;;;4981859;28;20553;-64
2023/10/17 08:49:55;;;;;;;9.40;7.80;;;11.20;99.90;;;;;;4970273;28;20506;-65
2023/10/17 08:52:23;;;;;;;8.20;7.40;;;11.50;99.90;;;;;;4977926;28;20442;-64
2023/10/17 08:54:49;;;;;;;8.63;7.70;;;11.80;99.90;;;;;;4970269;28;20459;-63
2023/10/17 08:57:14;;;;;;;8.27;6.90;;;12.10;99.90;;;;;;4970814;28;20454;-64
2023/10/17 09:02:29;;;;;;;7.37;6.63;;;12.60;99.90;;;;;;4973191;28;20191;-64
2023/10/17 09:05:13;;;;;;;7.73;6.97;;;12.80;99.90;;;;;;4971115;28;20792;-64
2023/10/17 09:07:42;;;;;;;8.20;6.10;;;13.00;99.90;;;;;;4974638;28;20925;-62
2023/10/17 09:10:38;;;;;;;7.43;5.70;;;13.20;99.90;;;;;;4976072;28;20486;-64
2023/10/17 09:13:42;;;;;;;9.30;6.00;;;13.30;99.90;;;;;;4972769;28;20463;-64
2023/10/17 09:16:10;;;;;;;6.83;6.13;;;13.50;99.90;;;;;;4971944;28;20443;-64
2023/10/17 09:18:42;;;;;;;7.00;6.30;;;13.60;99.90;;;;;;4971467;28;20564;-64
2023/10/17 09:21:08;;;;;;;6.67;5.97;;;13.70;99.90;;;;;;4973752;28;20428;-65
2023/10/17 09:23:38;;;;;;;5.93;5.40;;;13.80;99.90;;;;;;4990909;28;20443;-65
2023/10/17 09:26:07;;;;;;;6.13;5.60;;;14.00;99.90;;;;;;4972156;28;20999;-65
2023/10/17 09:28:42;;;;;;;6.20;5.40;;;14.10;99.90;;;;;;4974368;28;20427;-65
2023/10/17 09:31:09;;;;;;;5.40;4.83;;;14.20;99.90;;;;;;4973946;28;20519;-65
2023/10/17 09:33:36;;;;;;;5.93;5.33;;;14.30;99.90;;;;;;4975796;28;23257;-65
2023/10/17 09:36:04;;;;;;;7.77;5.43;;;14.40;99.90;;;;;;4970073;28;20450;-64
2023/10/17 09:38:45;;;;;;;8.17;6.20;;;14.50;99.90;;;;;;4972120;28;20482;-65
2023/10/17 09:41:19;;;;;;;6.20;5.20;;;14.60;99.90;;;;;;4973196;28;20441;-65
2023/10/17 09:43:46;;;;;;;6.47;4.50;;;14.70;99.90;;;;;;4970054;28;20458;-64
2023/10/17 09:46:13;;;;;;;4.87;3.57;;;14.90;99.90;;;;;;4973170;28;20823;-65
2023/10/17 09:48:43;;;;;;;6.57;4.67;;;14.90;99.90;;;;;;4975726;28;20843;-64
2023/10/17 09:51:15;;;;;;;4.80;4.00;;;14.90;99.90;;;;;;4973163;28;20735;-64
2023/10/17 09:53:45;;;;;;;7.03;4.50;;;14.90;99.90;;;;;;4974919;28;20447;-64
2023/10/17 09:56:17;;;;;;;4.90;4.40;;;14.90;99.90;;;;;;4972262;28;20459;-64
2023/10/17 09:58:48;;;;;;;5.90;4.43;;;14.90;99.90;;;;;;4970317;28;21132;-64
2023/10/17 10:01:20;;;;;;;4.37;3.93;;;14.90;99.90;;;;;;4970333;28;20427;-64
2023/10/17 10:03:51;;;;;;;5.77;4.10;;;14.90;99.90;;;;;;4969747;28;20614;-64
2023/10/17 10:06:31;;;;;;;4.73;4.23;;;14.90;99.90;;;;;;4973259;28;20857;-65
2023/10/17 10:09:13;;;;;;;6.20;5.00;;;14.90;99.90;;;;;;4980897;28;20435;-64
2023/10/17 10:11:48;;;;;;;9.87;5.27;;;14.80;99.90;;;;;;4971331;28;21320;-64
2023/10/17 10:14:15;;;;;;;6.20;4.47;;;14.80;99.90;;;;;;4977926;28;20441;-64
2023/10/17 10:16:55;;;;;;;6.10;5.20;;;14.80;99.90;;;;;;4969959;28;20464;-65
2023/10/17 10:19:44;;;;;;;4.87;4.47;;;14.80;99.90;;;;;;4970537;28;20477;-64
2023/10/17 10:22:11;;;;;;;4.43;4.03;;;14.70;99.90;;;;;;4972476;28;20447;-64
2023/10/17 10:24:39;;;;;;;4.60;3.83;;;14.70;99.90;;;;;;4970220;28;20436;-65
2023/10/17 10:27:26;;;;;;;5.47;4.97;;;14.60;99.90;;;;;;4971066;28;20436;-65
2023/10/17 10:30:31;;;;;;;4.50;4.10;;;14.60;99.90;;;;;;4976560;28;20436;-64
2023/10/17 10:32:58;;;;;;;5.40;4.30;;;14.50;99.90;;;;;;4969996;28;20427;-64
2023/10/17 10:35:24;;;;;;;3.97;3.57;;;14.30;99.90;;;;;;4971298;28;20431;-65
2023/10/17 10:37:50;;;;;;;3.37;3.07;;;14.20;99.90;;;;;;4969653;28;21004;-65
2023/10/17 10:40:17;;;;;;;4.90;3.23;;;14.10;99.90;;;;;;4976642;28;20556;-64
2023/10/17 10:42:53;;;;;;;3.77;2.90;;;14.00;99.90;;;;;;4969282;28;20503;-64
2023/10/17 10:45:40;;;;;;;3.40;2.83;;;14.00;99.90;;;;;;4971004;28;20206;-64
2023/10/17 10:48:14;;;;;;;3.83;2.80;;;13.90;99.90;;;;;;4970752;28;20470;-64
2023/10/17 10:50:42;;;;;;;6.63;2.93;;;13.90;99.90;;;;;;4969049;28;20582;-64
2023/10/17 10:53:28;;;;;;;3.60;2.97;;;13.80;99.90;;;;;;4970295;28;20471;-64
2023/10/17 10:55:59;;;;;;;5.33;2.77;;;13.70;99.90;;;;;;4971756;28;20830;-64
2023/10/17 10:58:27;;;;;;;2.33;2.13;;;13.50;99.90;;;;;;4975717;28;20561;-64
2023/10/17 11:00:58;;;;;;;4.20;2.60;;;13.50;99.90;;;;;;4977642;28;20449;-64
2023/10/17 11:03:24;;;;;;;4.10;3.43;;;13.60;99.90;;;;;;4975253;28;20431;-64
2023/10/17 11:05:54;;;;;;;5.17;4.30;;;13.60;99.90;;;;;;4968302;28;20438;-64
2023/10/17 11:08:24;;;;;;;4.87;3.70;;;13.50;99.90;;;;;;4975922;28;20512;-64
2023/10/17 11:10:50;;;;;;;5.50;3.33;;;13.50;99.90;;;;;;4970343;28;20424;-64
2023/10/17 11:13:16;;;;;;;4.53;4.03;;;13.50;99.90;;;;;;4964243;28;21194;-64
2023/10/17 11:15:44;;;;;;;5.43;4.83;;;13.60;99.90;;;;;;4968513;28;20519;-64
2023/10/17 11:18:10;;;;;;;5.33;4.80;;;13.70;99.90;;;;;;4970747;28;22335;-64
2023/10/17 11:20:40;;;;;;;5.27;4.77;;;13.80;99.90;;;;;;4968807;28;20420;-64
2023/10/17 11:23:12;;;;;;;6.60;5.97;;;14.00;99.90;;;;;;4970280;28;20966;-64
2023/10/17 11:25:44;;;;;;;6.90;4.70;;;14.10;99.90;;;;;;4964560;28;20439;-64
2023/10/17 11:28:10;;;;;;;9.23;6.00;;;14.20;99.90;;;;;;4978023;28;21329;-64
2023/10/17 11:30:40;;;;;;;6.03;5.50;;;14.40;99.90;;;;;;4987311;28;20424;-64
2023/10/17 11:33:10;;;;;;;5.97;5.27;;;14.50;99.90;;;;;;4969612;28;20428;-64
2023/10/17 11:35:37;;;;;;;5.90;5.40;;;14.60;99.90;;;;;;4967975;28;20435;-64
2023/10/17 11:38:03;;;;;;;5.83;4.27;;;14.70;99.90;;;;;;4970095;28;20507;-64
2023/10/17 11:40:55;;;;;;;5.70;4.97;;;14.90;99.90;;;;;;4969926;28;20694;-64
2023/10/17 11:43:28;;;;;;;7.70;5.93;;;14.90;99.90;;;;;;4967272;28;20459;-64
2023/10/17 11:45:54;;;;;;;6.37;5.00;;;15.00;99.90;;;;;;4967313;28;20423;-64
2023/10/17 11:48:27;;;;;;;5.40;4.60;;;15.00;99.90;;;;;;4975310;28;20431;-65
2023/10/17 11:51:13;;;;;;;6.40;5.40;;;15.00;99.90;;;;;;4968215;28;20428;-64
2023/10/17 11:54:07;;;;;;;5.67;5.17;;;15.00;99.90;;;;;;4968061;28;20432;-64
2023/10/17 11:56:34;;;;;;;6.70;5.97;;;15.10;99.90;;;;;;4970280;28;20462;-65
2023/10/17 11:59:01;;;;;;;8.00;5.40;;;15.20;99.90;;;;;;4978871;28;20548;-65
2023/10/17 12:01:28;;;;;;;6.10;5.17;;;15.20;99.90;;;;;;4969731;28;20933;-64
2023/10/17 12:03:56;;;;;;;4.80;4.30;;;15.20;99.90;;;;;;4974839;28;20431;-64
2023/10/17 12:06:26;;;;;;;6.70;4.80;;;15.20;99.90;;;;;;4966454;28;20498;-64
2023/10/17 12:08:53;;;;;;;6.90;5.30;;;15.30;99.90;;;;;;4965247;28;20436;-65
2023/10/17 12:11:19;;;;;;;5.13;4.63;;;15.40;99.90;;;;;;4970658;28;20443;-65
2023/10/17 12:13:46;;;;;;;5.10;4.60;;;15.40;99.90;;;;;;4982715;28;21031;-65
2023/10/17 12:16:11;;;;;;;4.50;4.10;;;15.50;99.90;;;;;;4980347;28;20423;-64
2023/10/17 12:18:37;;;;;;;5.53;5.00;;;15.50;99.90;;;;;;4994352;28;20482;-65
2023/10/17 12:21:04;;;;;;;7.63;5.57;;;15.60;99.90;;;;;;4970251;28;20196;-65
2023/10/17 12:23:30;;;;;;;6.30;5.70;;;15.50;99.90;;;;;;4974151;28;20512;-65
2023/10/17 12:26:07;;;;;;;5.70;5.10;;;15.50;99.90;;;;;;4976174;28;20489;-65
2023/10/17 12:28:33;;;;;;;6.37;5.47;;;15.50;99.90;;;;;;4972971;28;21476;-65
2023/10/17 12:30:59;;;;;;;5.60;5.07;;;15.50;99.90;;;;;;4976301;28;20518;-65
2023/10/17 12:33:25;;;;;;;7.20;5.40;;;15.50;99.90;;;;;;4971450;28;20556;-65
2023/10/17 12:35:53;;;;;;;7.13;5.60;;;15.50;99.90;;;;;;4969810;28;20208;-65
2023/10/17 12:38:25;;;;;;;6.30;5.70;;;15.50;99.90;;;;;;4972472;28;20220;-65
2023/10/17 12:40:53;;;;;;;6.67;5.97;;;15.60;99.90;;;;;;4970824;28;20428;-64
2023/10/17 12:43:19;;;;;;;5.27;4.77;;;15.60;99.90;;;;;;4970043;28;21267;-65
2023/10/17 12:45:46;;;;;;;6.57;5.90;;;15.70;99.90;;;;;;4969683;28;20502;-65
2023/10/17 12:48:11;;;;;;;5.40;4.90;;;15.80;99.90;;;;;;4973721;28;20515;-65
2023/10/17 12:50:46;;;;;;;5.63;5.03;;;15.80;99.90;;;;;;4970705;28;21238;-65
2023/10/17 12:53:12;;;;;;;5.20;4.70;;;15.90;99.90;;;;;;4970173;28;20221;-65
2023/10/17 12:55:39;;;;;;;5.43;4.57;;;15.90;99.90;;;;;;4969766;28;21122;-65
2023/10/17 12:58:10;;;;;;;5.50;5.00;;;15.90;99.90;;;;;;4972683;28;20468;-65
2023/10/17 13:00:40;;;;;;;4.97;4.50;;;16.00;99.90;;;;;;4969841;28;20436;-65
2023/10/17 13:03:09;;;;;;;5.83;4.83;;;16.00;99.90;;;;;;4971128;28;20475;-65
2023/10/17 13:05:35;;;;;;;4.67;4.13;;;16.00;99.90;;;;;;4967042;28;20436;-65
2023/10/17 13:08:01;;;;;;;5.43;4.73;;;15.80;99.90;;;;;;4971943;28;20431;-65
2023/10/17 13:10:26;;;;;;;5.63;4.00;;;15.90;99.90;;;;;;4973011;28;20212;-64
2023/10/17 13:12:52;;;;;;;5.17;4.67;;;15.90;99.90;;;;;;4970361;28;21108;-65
2023/10/17 13:15:18;;;;;;;21.83;5.83;;;16.00;99.90;;;;;;4972306;28;20270;-64
2023/10/17 13:17:44;;;;;;;5.73;5.13;;;16.00;99.90;;;;;;4977051;28;20220;-65
2023/10/17 13:20:10;;;;;;;5.10;4.60;;;16.00;99.90;;;;;;4971130;28;20749;-65
2023/10/17 13:22:46;;;;;;;4.90;4.50;;;15.90;99.90;;;;;;4969583;28;21078;-65
2023/10/17 13:25:13;;;;;;;7.73;5.00;;;15.80;99.90;;;;;;4972524;28;20439;-65
2023/10/17 13:27:39;;;;;;;6.57;4.90;;;15.70;99.90;;;;;;4969616;28;20431;-65
2023/10/17 13:30:06;;;;;;;5.60;4.37;;;15.70;99.90;;;;;;4976656;28;20432;-65
2023/10/17 13:32:33;;;;;;;4.57;4.17;;;15.60;99.90;;;;;;4970150;28;20832;-65
2023/10/17 13:34:59;;;;;;;5.37;4.00;;;15.50;99.90;;;;;;4970514;28;20853;-65
2023/10/17 13:37:28;;;;;;;4.40;4.00;;;15.40;99.90;;;;;;4971376;28;20474;-65
2023/10/17 13:39:56;;;;;;;5.20;4.40;;;15.40;99.90;;;;;;4970409;28;20463;-65
2023/10/17 13:42:23;;;;;;;5.43;4.33;;;15.40;99.90;;;;;;4971436;28;20529;-64
2023/10/17 13:44:49;;;;;;;3.93;3.53;;;15.20;99.90;;;;;;4969059;28;20981;-65
2023/10/17 13:47:16;;;;;;;5.63;4.73;;;15.30;99.90;;;;;;4972649;28;20543;-65
2023/10/17 13:49:42;;;;;;;4.67;4.27;;;15.20;99.90;;;;;;4969439;28;20219;-65
2023/10/17 13:52:09;;;;;;;6.43;3.97;;;15.20;99.90;;;;;;4969674;28;20538;-65
2023/10/17 13:54:35;;;;;;;4.70;4.30;;;15.10;99.90;;;;;;4968794;28;20435;-65
2023/10/17 13:57:01;;;;;;;5.83;4.00;;;15.00;99.90;;;;;;4970744;28;20460;-65
2023/10/17 13:59:46;;;;;;;5.60;3.80;;;15.00;99.90;;;;;;4970956;28;20565;-65
2023/10/17 14:02:15;;;;;;;5.03;4.13;;;15.00;99.90;;;;;;4971746;28;20497;-65
2023/10/17 14:04:41;;;;;;;4.77;4.27;;;15.10;99.90;;;;;;4968853;28;20432;-65
2023/10/17 14:07:07;;;;;;;4.70;4.30;;;15.00;99.90;;;;;;4971351;28;20784;-65
2023/10/17 14:09:32;;;;;;;7.63;4.07;;;14.80;99.90;;;;;;4970525;28;20215;-64
2023/10/17 14:11:59;;;;;;;4.80;4.40;;;14.70;99.90;;;;;;4971409;28;20227;-65
2023/10/17 14:14:25;;;;;;;4.10;3.33;;;14.60;99.90;;;;;;4986515;28;20180;-65
2023/10/17 14:16:51;;;;;;;4.67;3.73;;;14.50;99.90;;;;;;4968918;28;20503;-65
2023/10/17 14:27:24;;;;;;;3.50;3.20;;;14.50;99.90;;;;;;4969224;28;20559;-64
2023/10/17 14:29:51;;;;;;;4.20;3.67;;;14.50;99.90;;;;;;4980244;28;20439;-65
2023/10/17 14:32:20;;;;;;;3.57;3.27;;;14.50;99.90;;;;;;4968611;28;20433;-63
2023/10/17 14:34:47;;;;;;;3.70;3.40;;;14.50;99.90;;;;;;4967540;28;20428;-63
2023/10/17 14:37:17;;;;;;;3.30;3.00;;;14.50;99.90;;;;;;4972009;28;20932;-64
2023/10/17 14:39:43;;;;;;;5.47;4.10;;;14.40;99.90;;;;;;4972435;28;20522;-63
2023/10/17 14:42:10;;;;;;;3.50;3.00;;;14.30;99.90;;;;;;4971562;28;20431;-65
2023/10/17 14:44:39;;;;;;;3.53;3.23;;;14.30;99.90;;;;;;4969353;28;20466;-65
2023/10/17 14:47:06;;;;;;;3.60;3.17;;;14.20;99.90;;;;;;4969869;28;21129;-64
2023/10/17 14:49:32;;;;;;;4.10;3.00;;;14.20;99.90;;;;;;4967668;28;20534;-65
2023/10/17 14:51:57;;;;;;;3.00;2.80;;;14.20;99.90;;;;;;4968111;28;20530;-65
2023/10/17 14:54:23;;;;;;;3.50;3.20;;;14.10;99.90;;;;;;4970688;28;20453;-65
2023/10/17 14:57:01;;;;;;;3.67;3.37;;;14.20;99.90;;;;;;4971612;28;20198;-65
2023/10/17 14:59:28;;;;;;;3.30;3.00;;;14.10;99.90;;;;;;4972003;28;20470;-65
2023/10/17 15:01:54;;;;;;;3.47;3.17;;;14.00;99.90;;;;;;4965556;28;20434;-64
2023/10/17 15:04:20;;;;;;;6.00;3.60;;;14.00;99.90;;;;;;4970710;28;20458;-65
2023/10/17 15:06:45;;;;;;;3.37;3.00;;;13.80;99.90;;;;;;4966999;28;20187;-64
2023/10/17 15:09:14;;;;;;;4.07;3.17;;;13.80;99.90;;;;;;4970740;28;20423;-65
2023/10/17 15:11:40;;;;;;;3.57;3.27;;;13.70;99.90;;;;;;4974570;28;20638;-65
2023/10/17 15:14:06;;;;;;;3.07;2.77;;;13.60;99.90;;;;;;4973769;28;20479;-65
2023/10/17 15:16:32;;;;;;;6.90;3.40;;;13.60;99.90;;;;;;4970007;28;20187;-65
2023/10/17 15:18:59;;;;;;;3.30;3.00;;;13.50;99.90;;;;;;4972994;28;20645;-65
2023/10/17 15:21:26;;;;;;;3.40;3.10;;;13.50;99.90;;;;;;4969887;28;20441;-64
2023/10/17 15:23:52;;;;;;;4.27;3.10;;;13.40;99.90;;;;;;4971658;28;21075;-65
2023/10/17 15:26:19;;;;;;;3.13;2.70;;;13.40;99.90;;;;;;4967027;28;20518;-65